NCAR-RAP Real-Time Weather Data

Output produced by METARs form (12 August 2020  18:26 UTC)
found at http://weather.rap.ucar.edu/surface/
 
KLBF 121753Z AUTO 20009KT 10SM CLR 29/15 A3000 RMK AO2 SLP129 T02940150 10294 20183 51005
KLBF 121653Z AUTO 19011G20KT 10SM CLR 28/14 A3000 RMK AO2 SLP129 T02830144
KLBF 121553Z AUTO 00000KT 10SM CLR 26/14 A3000 RMK AO2 SLP127 T02610144
KLBF 121453Z AUTO 00000KT 10SM CLR 23/16 A2998 RMK AO2 SLP123 T02330161 53016
KLBF 121353Z AUTO 08003KT 10SM CLR 21/16 A2996 RMK AO2 SLP118 T02110161 TSNO
KLBF 121253Z AUTO 19003KT 10SM CLR 19/16 A2995 RMK AO2 SLP115 T01890156 TSNO
KLBF 121153Z AUTO 00000KT 10SM CLR 18/16 A2993 RMK AO2 SLP107 T01830156 10194 20161 55005 TSNO
KLBF 121053Z AUTO 02003KT 10SM CLR 18/16 A2992 RMK AO2 SLP104 T01780156 TSNO
KLBF 120953Z AUTO 13004KT 10SM CLR 19/16 A2995 RMK AO2 SLP112 T01890156 TSNO
KLBF 120853Z AUTO 20003KT 10SM CLR 17/14 A2995 RMK AO2 SLP111 T01670144 55010
KLBF 120753Z AUTO 09006KT 10SM CLR 16/13 A2992 RMK AO2 SLP103 T01610128
KLBF 120653Z AUTO 10008KT 10SM CLR 17/13 A2997 RMK AO2 SLP121 T01720133
KLBF 120553Z AUTO 12006KT 10SM CLR 19/13 A2998 RMK AO2 SLP123 T01890133 10289 20183 403280156 50006
KLBF 120453Z AUTO 00000KT 10SM CLR 21/14 A2998 RMK AO2 SLP124 T02060139
KLBF 120353Z AUTO 05011KT 10SM CLR 24/15 A2999 RMK AO2 SLP126 T02440150
KLBF 120253Z AUTO 36008G25KT 10SM CLR 26/16 A2996 RMK AO2 SLP117 T02610161 53023
KLBF 120153Z AUTO 11007KT 10SM CLR 24/19 A2989 RMK AO2 SLP095 T02440189
KLBF 120053Z AUTO 16008KT 10SM FEW060 28/18 A2990 RMK AO2 SLP097 T02780178
KLBF 112353Z AUTO 13010KT 10SM CLR 29/18 A2989 RMK AO2 SLP095 T02890178 10328 20289 55002
KLBF 112253Z AUTO 14010G22KT 10SM CLR 30/18 A2987 RMK AO2 SLP089 T03000183
KLBF 112153Z AUTO 13013G22KT 10SM CLR 32/19 A2988 RMK AO2 SLP090 T03220189